createdAt,value
2018-04-26T00:00:47.023Z,11.66
2018-04-26T00:01:47.449Z,11.54
2018-04-26T00:02:47.878Z,11.54
2018-04-26T00:03:48.386Z,11.52
2018-04-26T00:04:48.728Z,11.55
2018-04-26T00:05:49.159Z,11.52
2018-04-26T00:06:49.598Z,11.50
2018-04-26T00:07:50.018Z,11.48
2018-04-26T00:08:50.446Z,11.57
2018-04-26T00:09:50.878Z,11.55
2018-04-26T00:10:51.300Z,11.51
2018-04-26T00:11:51.730Z,11.48
2018-04-26T00:12:52.156Z,11.54
2018-04-26T00:13:52.588Z,11.37
2018-04-26T00:14:53.031Z,11.47
2018-04-26T00:15:53.438Z,11.33
2018-04-26T00:16:53.871Z,11.19
2018-04-26T00:17:54.299Z,11.15
2018-04-26T00:18:54.723Z,11.18
2018-04-26T00:19:55.148Z,11.19
2018-04-26T00:20:55.576Z,11.22
2018-04-26T00:21:56.004Z,11.23
2018-04-26T00:22:56.432Z,11.23
2018-04-26T00:23:56.857Z,11.23
2018-04-26T00:24:57.287Z,11.25
2018-04-26T00:25:57.712Z,11.18
2018-04-26T00:26:58.146Z,11.18
2018-04-26T00:27:58.571Z,11.04
2018-04-26T00:28:58.999Z,11.05
2018-04-26T00:29:59.427Z,11.08
2018-04-26T00:30:59.856Z,11.07
2018-04-26T00:32:00.278Z,11.07
2018-04-26T00:33:00.709Z,11.04
2018-04-26T00:34:01.148Z,11.05
2018-04-26T00:35:01.563Z,11.11
2018-04-26T00:36:01.999Z,11.05
2018-04-26T00:37:02.434Z,11.05
2018-04-26T00:38:02.848Z,11.05
2018-04-26T00:39:03.271Z,11.00
2018-04-26T00:40:03.704Z,11.08
2018-04-26T00:41:04.134Z,10.97
2018-04-26T00:42:04.556Z,10.96
2018-04-26T00:43:04.991Z,11.00
2018-04-26T00:44:05.409Z,10.90
2018-04-26T00:45:05.841Z,10.93
2018-04-26T00:46:06.269Z,10.92
2018-04-26T00:47:06.693Z,10.92
2018-04-26T00:48:07.121Z,10.89
2018-04-26T00:49:07.554Z,10.90
2018-04-26T00:50:07.974Z,10.99
2018-04-26T00:51:08.404Z,10.86
2018-04-26T00:52:08.831Z,10.87
2018-04-26T00:53:09.261Z,10.90
2018-04-26T00:54:09.746Z,10.89
2018-04-26T00:55:10.116Z,10.87
2018-04-26T00:56:10.543Z,10.89
2018-04-26T00:57:10.969Z,10.76
2018-04-26T00:58:11.401Z,10.79
2018-04-26T00:59:11.823Z,10.75
2018-04-26T01:00:12.256Z,10.72
2018-04-26T01:01:12.691Z,10.75
2018-04-26T01:02:13.112Z,10.75
2018-04-26T01:03:13.532Z,10.72
2018-04-26T01:04:13.960Z,10.72
2018-04-26T01:05:14.387Z,10.74
2018-04-26T01:06:14.813Z,10.71
2018-04-26T01:07:15.245Z,10.53
2018-04-26T01:08:15.670Z,10.54
2018-04-26T01:09:16.111Z,10.56
2018-04-26T01:10:16.527Z,10.56
2018-04-26T01:11:16.953Z,10.53
2018-04-26T01:12:17.382Z,10.56
2018-04-26T01:13:17.806Z,10.51
2018-04-26T01:14:18.238Z,10.54
2018-04-26T01:15:18.656Z,10.51
2018-04-26T01:16:19.091Z,10.38
2018-04-26T01:17:19.513Z,10.46
2018-04-26T01:18:19.943Z,10.40
2018-04-26T01:19:20.370Z,10.49
2018-04-26T01:20:20.810Z,10.44
2018-04-26T01:21:21.217Z,10.38
2018-04-26T01:22:21.655Z,10.37
2018-04-26T01:23:22.071Z,10.25
2018-04-26T01:24:22.499Z,10.35
2018-04-26T01:25:22.927Z,10.40
2018-04-26T01:26:23.351Z,10.38
2018-04-26T01:27:23.783Z,10.35
2018-04-26T01:28:24.210Z,10.33
2018-04-26T01:29:24.631Z,10.34
2018-04-26T01:30:25.059Z,10.34
2018-04-26T01:31:25.487Z,10.33
2018-04-26T01:32:25.920Z,10.28
2018-04-26T01:33:26.340Z,10.25
2018-04-26T01:34:26.761Z,10.26
2018-04-26T01:35:27.194Z,10.34
2018-04-26T01:36:27.626Z,10.20
2018-04-26T01:37:28.045Z,10.26
2018-04-26T01:38:28.472Z,10.16
2018-04-26T01:39:28.896Z,10.16
2018-04-26T01:40:29.332Z,10.17
2018-04-26T01:41:29.763Z,10.13
2018-04-26T01:42:30.184Z,10.17
2018-04-26T01:43:30.606Z,10.15
2018-04-26T01:44:31.032Z,10.15
2018-04-26T01:45:31.457Z,10.13
2018-04-26T01:46:31.889Z,10.05
2018-04-26T01:47:32.315Z,10.01
2018-04-26T01:48:32.742Z,9.95
2018-04-26T01:49:33.171Z,9.89
2018-04-26T01:50:33.591Z,9.95
2018-04-26T01:51:34.018Z,9.94
2018-04-26T01:52:34.446Z,9.95
2018-04-26T01:53:34.873Z,9.87
2018-04-26T01:54:35.296Z,9.86
2018-04-26T01:55:35.723Z,9.89
2018-04-26T01:56:36.155Z,9.87
2018-04-26T01:57:36.579Z,9.91
2018-04-26T01:58:37.004Z,9.89
2018-04-26T01:59:37.428Z,9.79
2018-04-26T02:00:37.861Z,9.80
2018-04-26T02:01:38.294Z,9.92
2018-04-26T02:02:38.713Z,9.66
2018-04-26T02:03:39.136Z,9.62
2018-04-26T02:04:39.564Z,9.56
2018-04-26T02:05:39.990Z,9.55
2018-04-26T02:06:40.423Z,9.54
2018-04-26T02:07:40.839Z,9.61
2018-04-26T02:08:41.270Z,9.54
2018-04-26T02:09:41.698Z,9.55
2018-04-26T02:10:42.123Z,9.43
2018-04-26T02:11:42.549Z,9.41
2018-04-26T02:12:42.984Z,9.41
2018-04-26T02:13:43.400Z,9.54
2018-04-26T02:14:43.825Z,9.51
2018-04-26T02:15:44.252Z,9.54
2018-04-26T02:16:44.682Z,9.59
2018-04-26T02:17:45.105Z,9.58
2018-04-26T02:18:45.530Z,9.50
2018-04-26T02:19:45.955Z,9.48
2018-04-26T02:20:46.388Z,9.46
2018-04-26T02:21:46.811Z,9.51
2018-04-26T02:22:47.239Z,9.46
2018-04-26T02:23:47.662Z,9.55
2018-04-26T02:24:48.102Z,9.46
2018-04-26T02:25:48.515Z,9.50
2018-04-26T02:26:48.941Z,9.50
2018-04-26T02:27:49.398Z,9.48
2018-04-26T02:28:49.796Z,9.51
2018-04-26T02:29:50.221Z,9.47
2018-04-26T02:30:50.646Z,9.47
2018-04-26T02:31:51.102Z,9.48
2018-04-26T02:32:51.498Z,9.40
2018-04-26T02:33:51.938Z,9.44
2018-04-26T02:34:52.357Z,9.39
2018-04-26T02:35:52.781Z,9.41
2018-04-26T02:36:53.213Z,9.41
2018-04-26T02:37:53.634Z,9.28
2018-04-26T02:38:54.060Z,9.21
2018-04-26T02:39:54.480Z,9.31
2018-04-26T02:40:54.909Z,9.37
2018-04-26T02:41:55.336Z,9.25
2018-04-26T02:42:55.760Z,9.25
2018-04-26T02:43:56.186Z,9.41
2018-04-26T02:44:56.612Z,9.34
2018-04-26T02:45:57.038Z,9.41
2018-04-26T02:46:57.464Z,9.47
2018-04-26T02:47:57.893Z,9.46
2018-04-26T02:48:58.317Z,9.46
2018-04-26T02:49:58.746Z,9.50
2018-04-26T02:50:59.162Z,9.51
2018-04-26T02:51:59.602Z,9.48
2018-04-26T02:53:00.022Z,9.50
2018-04-26T02:54:00.452Z,9.56
2018-04-26T02:55:00.873Z,9.46
2018-04-26T02:56:01.299Z,9.44
2018-04-26T02:57:01.732Z,9.46
2018-04-26T02:58:02.151Z,9.50
2018-04-26T02:59:02.578Z,9.56
2018-04-26T03:00:03.007Z,9.59
2018-04-26T03:01:03.437Z,9.62
2018-04-26T03:02:03.854Z,9.51
2018-04-26T03:03:04.286Z,9.61
2018-04-26T03:04:04.716Z,9.58
2018-04-26T03:05:05.137Z,9.58
2018-04-26T03:06:05.561Z,9.55
2018-04-26T03:07:05.988Z,9.56
2018-04-26T03:08:06.417Z,9.56
2018-04-26T03:09:06.839Z,9.54
2018-04-26T03:10:07.267Z,9.47
2018-04-26T03:11:07.698Z,9.51
2018-04-26T03:12:08.119Z,9.61
2018-04-26T03:13:08.547Z,9.55
2018-04-26T03:14:08.972Z,9.62
2018-04-26T03:15:09.395Z,9.55
2018-04-26T03:16:09.827Z,9.62
2018-04-26T03:17:10.252Z,9.58
2018-04-26T03:18:10.676Z,9.59
2018-04-26T03:19:11.103Z,9.56
2018-04-26T03:20:11.531Z,9.66
2018-04-26T03:21:11.963Z,9.59
2018-04-26T03:22:12.441Z,9.51
2018-04-26T03:23:12.814Z,9.56
2018-04-26T03:24:13.233Z,9.59
2018-04-26T03:25:13.660Z,9.51
2018-04-26T03:26:14.090Z,9.47
2018-04-26T03:27:14.511Z,9.44
2018-04-26T03:28:14.941Z,9.47
2018-04-26T03:29:15.369Z,9.47
2018-04-26T03:30:15.798Z,9.54
2018-04-26T03:31:16.384Z,9.47
2018-04-26T03:32:16.646Z,9.50
2018-04-26T03:33:17.075Z,9.48
2018-04-26T03:34:17.500Z,9.48
2018-04-26T03:35:17.927Z,9.47
2018-04-26T03:36:18.350Z,9.39
2018-04-26T03:37:18.822Z,9.44
2018-04-26T03:38:19.203Z,9.43
2018-04-26T03:39:19.633Z,9.43
2018-04-26T03:40:20.064Z,9.43
2018-04-26T03:41:20.481Z,9.36
2018-04-26T03:42:20.905Z,9.39
2018-04-26T03:43:21.331Z,9.43
2018-04-26T03:44:21.760Z,9.39
2018-04-26T03:45:22.187Z,9.40
2018-04-26T03:46:22.615Z,9.32
2018-04-26T03:47:23.035Z,9.32
2018-04-26T03:48:23.461Z,9.34
2018-04-26T03:49:23.900Z,9.41
2018-04-26T03:50:24.316Z,9.29
2018-04-26T03:51:24.739Z,9.41
2018-04-26T03:52:25.170Z,9.47
2018-04-26T03:53:25.600Z,9.48
2018-04-26T03:54:26.025Z,9.44
2018-04-26T03:55:26.447Z,9.43
2018-04-26T03:56:26.871Z,9.46
2018-04-26T03:57:27.298Z,9.50
2018-04-26T03:58:27.724Z,9.46
2018-04-26T03:59:28.150Z,9.43
2018-04-26T04:00:28.578Z,9.48
2018-04-26T04:01:29.078Z,9.47
2018-04-26T04:02:29.438Z,9.54
2018-04-26T04:03:29.857Z,9.48
2018-04-26T04:04:30.290Z,9.56
2018-04-26T04:05:30.706Z,9.54
2018-04-26T04:06:31.131Z,9.59
2018-04-26T04:07:31.568Z,9.64
2018-04-26T04:08:32.014Z,9.66
2018-04-26T04:09:32.423Z,9.68
2018-04-26T04:10:32.846Z,9.69
2018-04-26T04:11:33.262Z,9.72
2018-04-26T04:12:33.694Z,9.69
2018-04-26T04:13:34.118Z,9.61
2018-04-26T04:14:34.548Z,9.59
2018-04-26T04:15:34.971Z,9.64
2018-04-26T04:16:35.396Z,9.61
2018-04-26T04:17:35.822Z,9.58
2018-04-26T04:18:36.254Z,9.65
2018-04-26T04:19:36.671Z,9.56
2018-04-26T04:20:37.105Z,9.72
2018-04-26T04:21:37.532Z,9.59
2018-04-26T04:22:37.956Z,9.62
2018-04-26T04:23:38.401Z,9.64
2018-04-26T04:24:38.806Z,9.64
2018-04-26T04:25:39.235Z,9.69
2018-04-26T04:26:39.663Z,9.68
2018-04-26T04:27:40.129Z,9.82
2018-04-26T04:28:40.512Z,9.82
2018-04-26T04:29:40.943Z,9.86
2018-04-26T04:30:41.371Z,9.94
2018-04-26T04:31:41.791Z,9.87
2018-04-26T04:32:42.221Z,9.99
2018-04-26T04:33:42.651Z,10.01
2018-04-26T04:34:43.071Z,10.05
2018-04-26T04:35:43.498Z,10.05
2018-04-26T04:36:43.928Z,10.10
2018-04-26T04:37:44.349Z,10.10
2018-04-26T04:38:44.786Z,10.17
2018-04-26T04:39:45.208Z,10.22
2018-04-26T04:40:45.636Z,10.23
2018-04-26T04:41:46.061Z,10.34
2018-04-26T04:42:46.488Z,10.49
2018-04-26T04:43:46.911Z,10.53
2018-04-26T04:44:47.346Z,10.57
2018-04-26T04:45:47.770Z,10.74
2018-04-26T04:46:48.196Z,10.63
2018-04-26T04:47:48.624Z,10.67
2018-04-26T04:48:49.046Z,10.63
2018-04-26T04:49:49.481Z,10.56
2018-04-26T04:50:49.904Z,10.60
2018-04-26T04:51:50.332Z,10.54
2018-04-26T04:52:50.790Z,10.57
2018-04-26T04:53:51.254Z,10.67
2018-04-26T04:54:51.620Z,10.67
2018-04-26T04:55:52.045Z,10.67
2018-04-26T04:56:52.468Z,10.60
2018-04-26T04:57:52.894Z,10.59
2018-04-26T04:58:53.322Z,10.53
2018-04-26T04:59:53.835Z,10.57
2018-04-26T05:00:54.174Z,10.67
2018-04-26T05:01:54.686Z,10.67
2018-04-26T05:02:55.030Z,10.67
2018-04-26T05:03:55.455Z,10.67
2018-04-26T05:04:55.906Z,10.68
2018-04-26T05:05:56.314Z,10.74
2018-04-26T05:06:56.747Z,10.76
2018-04-26T05:07:57.196Z,10.89
2018-04-26T05:08:57.601Z,10.99
2018-04-26T05:09:58.023Z,11.04
2018-04-26T05:10:58.451Z,10.99
2018-04-26T05:11:58.873Z,10.82
2018-04-26T05:12:59.310Z,10.84
2018-04-26T05:13:59.745Z,10.93
2018-04-26T05:15:00.163Z,11.10
2018-04-26T05:16:00.590Z,11.11
2018-04-26T05:17:01.016Z,11.18
2018-04-26T05:18:01.454Z,11.25
2018-04-26T05:19:01.871Z,10.93
2018-04-26T05:20:02.308Z,11.00
2018-04-26T05:21:02.729Z,11.12
2018-04-26T05:22:03.156Z,11.19
2018-04-26T05:23:03.589Z,11.23
2018-04-26T05:24:04.019Z,11.23
2018-04-26T05:25:04.433Z,11.30
2018-04-26T05:26:04.884Z,11.43
2018-04-26T05:27:05.305Z,11.47
2018-04-26T05:28:05.734Z,11.40
2018-04-26T05:29:06.155Z,11.54
2018-04-26T05:30:06.649Z,11.41
2018-04-26T05:31:07.013Z,11.41
2018-04-26T05:32:07.439Z,11.51
2018-04-26T05:33:07.864Z,11.47
2018-04-26T05:34:08.295Z,11.04
2018-04-26T05:35:08.726Z,11.23
2018-04-26T05:36:09.147Z,10.97
2018-04-26T05:37:09.581Z,10.94
2018-04-26T05:38:10.010Z,11.10
2018-04-26T05:39:10.433Z,11.15
2018-04-26T05:40:10.875Z,11.18
2018-04-26T05:41:11.313Z,11.15
2018-04-26T05:42:11.752Z,11.23
2018-04-26T05:43:12.151Z,11.22
2018-04-26T05:44:12.575Z,11.12
2018-04-26T05:45:13.021Z,11.18
2018-04-26T05:46:13.434Z,11.18
2018-04-26T05:47:13.864Z,11.25
2018-04-26T05:48:14.287Z,11.35
2018-04-26T05:49:14.720Z,11.19
2018-04-26T05:50:15.139Z,11.25
2018-04-26T05:51:15.573Z,11.32
2018-04-26T05:52:16.001Z,11.36
2018-04-26T05:53:16.428Z,11.30
2018-04-26T05:54:16.863Z,11.12
2018-04-26T05:55:17.290Z,11.17
2018-04-26T05:56:17.726Z,11.11
2018-04-26T05:57:18.141Z,11.11
2018-04-26T05:58:18.572Z,11.19
2018-04-26T05:59:19.001Z,11.17
2018-04-26T06:00:19.436Z,11.07
2018-04-26T06:01:19.850Z,11.15
2018-04-26T06:02:20.282Z,11.10
2018-04-26T06:03:20.715Z,11.11
2018-04-26T06:04:21.132Z,11.35
2018-04-26T06:05:21.577Z,11.65
2018-04-26T06:06:21.997Z,11.84
2018-04-26T06:07:22.420Z,11.95
2018-04-26T06:08:22.851Z,12.04
2018-04-26T06:09:23.277Z,12.28
2018-04-26T06:10:23.705Z,12.18
2018-04-26T06:11:24.209Z,12.24
2018-04-26T06:12:24.569Z,12.35
2018-04-26T06:13:25.016Z,12.29
2018-04-26T06:14:25.552Z,12.31
2018-04-26T06:15:25.850Z,12.36
2018-04-26T06:16:26.274Z,12.39
2018-04-26T06:17:26.722Z,12.39
2018-04-26T06:18:27.146Z,12.43
2018-04-26T06:19:27.564Z,12.42
2018-04-26T06:20:27.998Z,12.40
2018-04-26T06:21:28.434Z,12.29
2018-04-26T06:22:28.867Z,12.29
2018-04-26T06:23:29.288Z,12.24
2018-04-26T06:24:29.715Z,12.20
2018-04-26T06:25:30.141Z,12.17
2018-04-26T06:26:30.596Z,12.29
2018-04-26T06:27:31.007Z,12.29
2018-04-26T06:28:31.431Z,12.24
2018-04-26T06:29:31.876Z,12.18
2018-04-26T06:30:32.295Z,12.06
2018-04-26T06:31:32.718Z,11.97
2018-04-26T06:32:33.154Z,11.77
2018-04-26T06:33:33.574Z,11.73
2018-04-26T06:34:34.018Z,11.80
2018-04-26T06:35:34.439Z,11.84
2018-04-26T06:36:34.866Z,11.90
2018-04-26T06:37:35.289Z,11.99
2018-04-26T06:38:35.721Z,11.88
2018-04-26T06:39:36.149Z,11.94
2018-04-26T06:40:36.587Z,11.97
2018-04-26T06:41:37.011Z,12.06
2018-04-26T06:42:37.438Z,12.03
2018-04-26T06:43:37.875Z,12.06
2018-04-26T06:44:38.289Z,11.83
2018-04-26T06:45:38.724Z,11.60
2018-04-26T06:46:39.148Z,11.68
2018-04-26T06:47:39.584Z,11.65
2018-04-26T06:48:40.002Z,11.84
2018-04-26T06:49:40.436Z,11.86
2018-04-26T06:50:40.863Z,12.10
2018-04-26T06:51:41.296Z,12.09
2018-04-26T06:52:41.807Z,12.17
2018-04-26T06:53:42.143Z,12.21
2018-04-26T06:54:42.583Z,11.95
2018-04-26T06:55:43.008Z,11.86
2018-04-26T06:56:43.445Z,12.02
2018-04-26T06:57:43.870Z,12.02
2018-04-26T06:58:44.302Z,12.20
2018-04-26T06:59:44.720Z,11.75
2018-04-26T07:00:45.161Z,11.84
2018-04-26T07:01:48.344Z,11.91
2018-04-26T07:02:46.016Z,11.94
2018-04-26T07:03:46.444Z,11.83
2018-04-26T07:04:46.878Z,11.63
2018-04-26T07:05:47.306Z,11.86
2018-04-26T07:06:47.730Z,11.94
2018-04-26T07:07:48.159Z,11.86
2018-04-26T07:08:48.595Z,12.10
2018-04-26T07:09:49.029Z,12.03
2018-04-26T07:10:49.467Z,11.88
2018-04-26T07:11:49.877Z,11.99
2018-04-26T07:12:50.304Z,11.80
2018-04-26T07:13:50.734Z,11.68
2018-04-26T07:14:51.159Z,11.65
2018-04-26T07:15:51.594Z,11.87
2018-04-26T07:16:52.023Z,11.78
2018-04-26T07:17:52.449Z,11.75
2018-04-26T07:18:52.880Z,11.88
2018-04-26T07:19:53.326Z,12.03
2018-04-26T07:20:53.736Z,11.99
2018-04-26T07:21:54.233Z,11.94
2018-04-26T07:22:54.601Z,12.09
2018-04-26T07:23:55.026Z,12.12
2018-04-26T07:24:55.456Z,12.06
2018-04-26T07:25:55.898Z,12.00
2018-04-26T07:26:56.314Z,12.10
2018-04-26T07:27:56.739Z,12.10
2018-04-26T07:28:57.178Z,11.94
2018-04-26T07:29:57.600Z,12.02
2018-04-26T07:30:58.037Z,11.91
2018-04-26T07:31:58.454Z,11.80
2018-04-26T07:32:58.886Z,11.73
2018-04-26T07:33:59.318Z,11.63
2018-04-26T07:34:59.744Z,11.75
2018-04-26T07:36:00.174Z,11.72
2018-04-26T07:37:00.608Z,11.75
2018-04-26T07:38:01.028Z,11.73
2018-04-26T07:39:01.458Z,11.60
2018-04-26T07:40:01.890Z,11.47
2018-04-26T07:41:02.328Z,11.62
2018-04-26T07:42:02.742Z,11.68
2018-04-26T07:43:03.178Z,11.95
2018-04-26T07:44:03.605Z,11.87
2018-04-26T07:45:04.028Z,11.91
2018-04-26T07:46:04.465Z,12.07
2018-04-26T07:47:04.942Z,12.45
2018-04-26T07:48:05.324Z,12.82
2018-04-26T07:49:05.748Z,12.68
2018-04-26T07:50:06.173Z,12.72
2018-04-26T07:51:06.622Z,13.03
2018-04-26T07:52:07.035Z,13.08
2018-04-26T07:53:07.532Z,13.38
2018-04-26T07:54:07.901Z,13.67
2018-04-26T07:55:08.338Z,14.50
2018-04-26T07:56:08.770Z,14.81
2018-04-26T07:57:09.212Z,15.00
2018-04-26T07:58:09.634Z,14.68
2018-04-26T07:59:10.075Z,14.50
2018-04-26T08:00:10.522Z,14.99
2018-04-26T08:01:10.953Z,14.89
2018-04-26T08:02:11.401Z,14.51
2018-04-26T08:03:11.830Z,13.93
2018-04-26T08:04:12.279Z,14.35
2018-04-26T08:05:12.726Z,14.29
2018-04-26T08:06:13.161Z,14.59
2018-04-26T08:07:13.598Z,15.52
2018-04-26T08:08:14.045Z,15.98
2018-04-26T08:09:14.486Z,16.33
2018-04-26T08:10:14.932Z,16.38
2018-04-26T08:11:15.383Z,16.43
2018-04-26T08:12:15.814Z,15.90
2018-04-26T08:13:16.261Z,16.32
2018-04-26T08:14:16.709Z,16.42
2018-04-26T08:15:17.145Z,15.09
2018-04-26T08:16:17.596Z,15.51
2018-04-26T08:17:18.043Z,15.61
2018-04-26T08:18:18.482Z,16.35
2018-04-26T08:19:18.931Z,17.59
2018-04-26T08:20:19.377Z,17.97
2018-04-26T08:21:19.828Z,17.59
2018-04-26T08:22:20.270Z,16.87
2018-04-26T08:23:20.715Z,16.65
2018-04-26T08:24:21.160Z,16.09
2018-04-26T08:25:21.607Z,17.60
2018-04-26T08:26:22.060Z,18.05
2018-04-26T08:27:22.503Z,18.11
2018-04-26T08:28:22.948Z,18.35
2018-04-26T08:29:23.427Z,18.75
2018-04-26T08:30:23.864Z,19.11
2018-04-26T08:31:24.290Z,18.49
2018-04-26T08:32:24.735Z,17.74
2018-04-26T08:33:25.188Z,17.74
2018-04-26T08:34:25.658Z,17.60
2018-04-26T08:35:26.077Z,17.57
2018-04-26T08:36:26.529Z,16.36
2018-04-26T08:37:26.966Z,15.92
2018-04-26T08:38:27.410Z,16.46
2018-04-26T08:39:27.859Z,16.58
2018-04-26T08:40:28.297Z,16.56
2018-04-26T08:41:28.744Z,16.32
2018-04-26T08:42:29.185Z,16.49
2018-04-26T08:43:29.628Z,15.28
2018-04-26T08:44:30.066Z,14.66
2018-04-26T08:45:30.524Z,14.68
2018-04-26T08:46:30.948Z,13.42
2018-04-26T08:47:31.387Z,12.93
2018-04-26T08:48:31.829Z,12.85
2018-04-26T08:49:32.260Z,12.29
2018-04-26T08:50:32.694Z,12.12
2018-04-26T08:51:33.135Z,12.36
2018-04-26T08:52:33.571Z,12.46
2018-04-26T08:53:34.004Z,12.53
2018-04-26T08:54:34.434Z,12.55
2018-04-26T08:55:34.875Z,12.39
2018-04-26T08:56:35.311Z,12.20
2018-04-26T08:57:35.737Z,11.90
2018-04-26T08:58:36.169Z,12.18
2018-04-26T08:59:36.602Z,12.36
2018-04-26T09:00:37.040Z,12.28
2018-04-26T09:01:37.464Z,11.99
2018-04-26T09:02:37.909Z,11.81
2018-04-26T09:03:38.328Z,11.44
2018-04-26T09:04:38.754Z,11.66
2018-04-26T09:05:39.247Z,11.83
2018-04-26T09:06:39.655Z,11.32
2018-04-26T09:07:40.049Z,11.45
2018-04-26T09:08:40.479Z,11.59
2018-04-26T09:09:40.916Z,11.95
2018-04-26T09:10:41.343Z,11.72
2018-04-26T09:11:41.772Z,11.90
2018-04-26T09:12:42.203Z,11.83
2018-04-26T09:13:42.641Z,12.17
2018-04-26T09:14:43.065Z,12.36
2018-04-26T09:15:43.552Z,12.21
2018-04-26T09:16:43.927Z,12.20
2018-04-26T09:17:44.357Z,12.21
2018-04-26T09:18:44.782Z,12.25
2018-04-26T09:19:45.214Z,12.12
2018-04-26T09:20:45.650Z,11.83
2018-04-26T09:21:46.069Z,11.50
2018-04-26T09:22:46.507Z,11.12
2018-04-26T09:23:46.930Z,10.37
2018-04-26T09:24:47.367Z,10.16
2018-04-26T09:25:47.816Z,10.09
2018-04-26T09:26:48.223Z,10.12
2018-04-26T09:27:48.646Z,10.04
2018-04-26T09:28:49.088Z,10.02
2018-04-26T09:29:49.505Z,10.16
2018-04-26T09:30:49.929Z,9.94
2018-04-26T09:31:50.359Z,9.83
2018-04-26T09:32:50.782Z,9.74
2018-04-26T09:33:51.211Z,9.89
2018-04-26T09:34:51.643Z,9.68
2018-04-26T09:35:52.066Z,9.61
2018-04-26T09:36:52.491Z,9.44
2018-04-26T09:37:52.922Z,9.39
2018-04-26T09:38:53.350Z,9.43
2018-04-26T09:39:53.775Z,9.34
2018-04-26T09:40:54.205Z,9.28
2018-04-26T09:41:54.628Z,9.55
2018-04-26T09:42:55.058Z,9.62
2018-04-26T09:43:55.482Z,9.80
2018-04-26T09:44:55.910Z,9.89
2018-04-26T09:45:56.345Z,9.99
2018-04-26T09:46:56.767Z,9.89
2018-04-26T09:47:57.237Z,10.31
2018-04-26T09:48:57.649Z,10.34
2018-04-26T09:49:58.049Z,10.40
2018-04-26T09:50:58.474Z,10.56
2018-04-26T09:51:58.904Z,10.60
2018-04-26T09:52:59.345Z,10.60
2018-04-26T09:53:59.755Z,10.56
2018-04-26T09:55:00.183Z,10.61
2018-04-26T09:56:00.608Z,10.46
2018-04-26T09:57:01.192Z,10.54
2018-04-26T09:58:01.462Z,10.42
2018-04-26T09:59:01.892Z,10.34
2018-04-26T10:00:02.323Z,10.82
2018-04-26T10:01:02.761Z,10.71
2018-04-26T10:02:03.184Z,10.74
2018-04-26T10:03:03.616Z,10.75
2018-04-26T10:04:04.090Z,10.86
2018-04-26T10:05:04.476Z,11.23
2018-04-26T10:06:04.901Z,11.54
2018-04-26T10:07:05.329Z,11.86
2018-04-26T10:08:05.773Z,11.45
2018-04-26T10:09:06.267Z,10.96
2018-04-26T10:10:06.621Z,11.40
2018-04-26T10:11:07.081Z,11.15
2018-04-26T10:12:07.509Z,11.57
2018-04-26T10:13:07.915Z,11.48
2018-04-26T10:14:08.342Z,12.20
2018-04-26T10:15:08.787Z,12.64
2018-04-26T10:16:09.221Z,13.04
2018-04-26T10:17:09.641Z,14.05
2018-04-26T10:18:10.084Z,15.22
2018-04-26T10:19:10.507Z,16.23
2018-04-26T10:20:10.944Z,17.05
2018-04-26T10:21:11.441Z,17.14
2018-04-26T10:22:11.825Z,17.80
2018-04-26T10:23:12.266Z,17.15
2018-04-26T10:24:12.700Z,15.70
2018-04-26T10:25:13.151Z,16.61
2018-04-26T10:26:13.584Z,15.75
2018-04-26T10:27:14.029Z,16.94
2018-04-26T10:28:14.472Z,16.90
2018-04-26T10:29:14.925Z,16.53
2018-04-26T10:30:15.357Z,17.06
2018-04-26T10:31:15.810Z,16.23
2018-04-26T10:32:16.247Z,14.51
2018-04-26T10:33:16.712Z,13.18
2018-04-26T10:34:17.136Z,15.02
2018-04-26T10:35:17.585Z,15.54
2018-04-26T10:36:18.024Z,15.04
2018-04-26T10:37:18.473Z,15.22
2018-04-26T10:38:18.920Z,15.42
2018-04-26T10:39:19.357Z,16.81
2018-04-26T10:40:19.809Z,17.19
2018-04-26T10:41:20.247Z,17.45
2018-04-26T10:42:20.692Z,15.17
2018-04-26T10:43:21.134Z,15.73
2018-04-26T10:44:21.599Z,17.31
2018-04-26T10:45:22.033Z,15.55
2018-04-26T10:46:22.503Z,15.36
2018-04-26T10:47:22.930Z,16.05
2018-04-26T10:48:23.366Z,17.08
2018-04-26T10:49:23.817Z,16.84
2018-04-26T10:50:24.262Z,15.18
2018-04-26T10:51:24.710Z,15.57
2018-04-26T10:52:25.156Z,15.57
2018-04-26T10:53:25.600Z,15.43
2018-04-26T10:54:26.054Z,15.00
2018-04-26T10:55:26.486Z,14.97
2018-04-26T10:56:26.921Z,14.63
2018-04-26T10:57:27.391Z,14.35
2018-04-26T10:58:27.850Z,13.92
2018-04-26T10:59:28.242Z,14.36
2018-04-26T11:00:28.674Z,14.25
2018-04-26T11:01:29.108Z,14.15
2018-04-26T11:02:29.561Z,14.22
2018-04-26T11:03:30.023Z,13.95
2018-04-26T11:04:30.427Z,14.08
2018-04-26T11:05:30.851Z,14.07
2018-04-26T11:06:31.288Z,14.07
2018-04-26T11:07:31.726Z,13.97
2018-04-26T11:08:32.161Z,13.31
2018-04-26T11:09:32.608Z,13.15
2018-04-26T11:10:33.026Z,13.70
2018-04-26T11:11:33.494Z,14.26
2018-04-26T11:12:33.905Z,14.43
2018-04-26T11:13:34.376Z,15.42
2018-04-26T11:14:34.759Z,15.65
2018-04-26T11:15:35.235Z,15.90
2018-04-26T11:16:35.640Z,16.35
2018-04-26T11:17:36.082Z,17.87
2018-04-26T11:18:36.518Z,16.57
2018-04-26T11:19:36.965Z,15.27
2018-04-26T11:20:37.408Z,15.49
2018-04-26T11:21:37.847Z,16.32
2018-04-26T11:22:38.447Z,17.20
2018-04-26T11:23:38.735Z,17.85
2018-04-26T11:24:39.180Z,18.01
2018-04-26T11:25:39.627Z,17.92
2018-04-26T11:26:40.064Z,18.77
2018-04-26T11:27:40.514Z,18.99
2018-04-26T11:28:40.950Z,18.71
2018-04-26T11:29:41.408Z,18.62
2018-04-26T11:30:41.859Z,18.10
2018-04-26T11:31:42.291Z,16.46
2018-04-26T11:32:42.771Z,15.24
2018-04-26T11:33:43.197Z,15.07
2018-04-26T11:34:43.629Z,15.22
2018-04-26T11:35:44.075Z,15.91
2018-04-26T11:36:44.517Z,15.94
2018-04-26T11:37:44.981Z,14.73
2018-04-26T11:38:45.403Z,15.52
2018-04-26T11:39:45.847Z,15.97
2018-04-26T11:40:46.287Z,16.38
2018-04-26T11:41:46.748Z,16.33
2018-04-26T11:42:47.175Z,14.84
2018-04-26T11:43:47.626Z,14.69
2018-04-26T11:44:48.056Z,14.40
2018-04-26T11:45:48.515Z,14.69
2018-04-26T11:46:49.023Z,15.00
2018-04-26T11:47:49.428Z,15.15
2018-04-26T11:48:49.828Z,15.09
2018-04-26T11:49:50.248Z,15.02
2018-04-26T11:50:50.689Z,14.79
2018-04-26T11:51:51.125Z,14.62
2018-04-26T11:52:51.564Z,14.48
2018-04-26T11:53:52.084Z,14.85
2018-04-26T11:54:52.428Z,15.19
2018-04-26T11:55:52.879Z,15.06
2018-04-26T11:56:53.309Z,15.29
2018-04-26T11:57:53.747Z,15.47
2018-04-26T11:58:54.175Z,15.24
2018-04-26T11:59:54.619Z,14.82
2018-04-26T12:00:55.069Z,14.77
2018-04-26T12:02:10.481Z,14.63
2018-04-26T12:02:55.922Z,14.65
2018-04-26T12:03:56.363Z,14.78
2018-04-26T12:04:56.789Z,15.00
2018-04-26T12:05:57.225Z,14.99
2018-04-26T12:06:57.655Z,15.27
2018-04-26T12:07:58.096Z,14.96
2018-04-26T12:08:58.528Z,14.84
2018-04-26T12:09:58.961Z,14.79
2018-04-26T12:10:59.434Z,15.09
2018-04-26T12:11:59.879Z,15.28
2018-04-26T12:13:00.292Z,15.25
2018-04-26T12:14:00.703Z,14.29
2018-04-26T12:15:01.147Z,14.50
2018-04-26T12:16:01.564Z,14.69
2018-04-26T12:17:02.008Z,14.82
2018-04-26T12:18:02.441Z,14.48
2018-04-26T12:19:02.871Z,14.51
2018-04-26T12:20:03.326Z,14.79
2018-04-26T12:21:03.738Z,14.48
2018-04-26T12:22:04.179Z,14.35
2018-04-26T12:23:04.609Z,14.62
2018-04-26T12:24:05.053Z,14.68
2018-04-26T12:25:05.481Z,14.60
2018-04-26T12:26:05.973Z,13.67
2018-04-26T12:27:06.335Z,13.13
2018-04-26T12:28:06.779Z,12.93
2018-04-26T12:29:07.205Z,13.03
2018-04-26T12:30:07.649Z,12.86
2018-04-26T12:31:08.076Z,13.13
2018-04-26T12:32:08.504Z,13.30
2018-04-26T12:33:08.938Z,13.54
2018-04-26T12:34:09.371Z,13.74
2018-04-26T12:35:09.844Z,13.93
2018-04-26T12:36:10.241Z,13.86
2018-04-26T12:37:10.671Z,13.97
2018-04-26T12:38:11.103Z,13.77
2018-04-26T12:39:11.556Z,13.83
2018-04-26T12:40:11.966Z,14.07
2018-04-26T12:41:12.405Z,14.18
2018-04-26T12:42:12.860Z,14.35
2018-04-26T12:43:13.265Z,14.33
2018-04-26T12:44:13.695Z,14.10
2018-04-26T12:45:14.135Z,14.03
2018-04-26T12:46:14.563Z,14.28
2018-04-26T12:47:14.996Z,14.30
2018-04-26T12:48:15.439Z,14.48
2018-04-26T12:49:15.878Z,14.81
2018-04-26T12:50:16.379Z,15.22
2018-04-26T12:51:16.738Z,15.59
2018-04-26T12:52:17.175Z,15.37
2018-04-26T12:53:17.603Z,15.43
2018-04-26T12:54:18.033Z,15.44
2018-04-26T12:55:18.476Z,15.39
2018-04-26T12:56:18.905Z,15.42
2018-04-26T12:57:19.337Z,15.29
2018-04-26T12:58:19.769Z,15.11
2018-04-26T12:59:20.205Z,14.99
2018-04-26T13:00:20.663Z,14.96
2018-04-26T13:01:21.078Z,14.84
2018-04-26T13:02:21.510Z,14.69
2018-04-26T13:03:21.933Z,14.36
2018-04-26T13:04:22.380Z,14.55